createdAt,value
2022-11-10T00:01:10.964Z,3.63
2022-11-10T00:03:39.450Z,7.80
2022-11-10T00:06:10.332Z,5.57
2022-11-10T00:08:37.431Z,7.33
2022-11-10T00:11:07.101Z,8.33
2022-11-10T00:13:56.559Z,3.23
2022-11-10T00:16:42.803Z,5.23
2022-11-10T00:19:10.367Z,2.23
2022-11-10T00:21:38.031Z,2.80
2022-11-10T00:24:05.692Z,2.60
2022-11-10T00:26:32.801Z,6.97
2022-11-10T00:28:59.936Z,4.80
2022-11-10T00:31:28.690Z,6.07
2022-11-10T00:33:56.326Z,7.57
2022-11-10T00:36:24.051Z,8.80
2022-11-10T00:38:52.069Z,3.03
2022-11-10T00:41:19.347Z,6.90
2022-11-10T00:43:47.078Z,4.07
2022-11-10T00:46:15.271Z,8.37
2022-11-10T00:48:42.639Z,3.30
2022-11-10T00:51:28.927Z,3.93
2022-11-10T00:53:56.608Z,5.50
2022-11-10T00:56:24.075Z,11.30
2022-11-10T00:58:51.669Z,3.40
2022-11-10T01:01:21.458Z,3.17
2022-11-10T01:03:48.614Z,1.30
2022-11-10T01:06:17.058Z,8.30
2022-11-10T01:08:44.582Z,3.40
2022-11-10T01:11:16.326Z,9.70
2022-11-10T01:13:44.175Z,7.13
2022-11-10T01:16:13.765Z,3.90
2022-11-10T01:18:41.263Z,6.93
2022-11-10T01:21:09.112Z,6.93
2022-11-10T01:23:36.520Z,5.23
2022-11-10T01:26:06.821Z,8.60
2022-11-10T01:28:36.043Z,4.30
2022-11-10T01:31:06.018Z,4.20
2022-11-10T01:33:34.007Z,12.30
2022-11-10T01:36:01.667Z,4.47
2022-11-10T01:38:31.509Z,5.67
2022-11-10T01:40:59.601Z,4.20
2022-11-10T01:43:27.773Z,2.00
2022-11-10T01:46:03.052Z,3.90
2022-11-10T01:48:42.173Z,11.00
2022-11-10T01:51:32.772Z,7.63
2022-11-10T01:54:13.253Z,5.87
2022-11-10T01:56:45.940Z,5.53
2022-11-10T01:59:17.728Z,5.40
2022-11-10T02:01:48.842Z,4.57
2022-11-10T02:04:19.340Z,3.00
2022-11-10T02:06:49.157Z,3.30
2022-11-10T02:09:17.008Z,1.80
2022-11-10T02:11:45.423Z,7.07
2022-11-10T02:14:13.761Z,4.90
2022-11-10T02:16:42.721Z,3.77
2022-11-10T02:19:22.446Z,2.20
2022-11-10T02:21:49.630Z,4.87
2022-11-10T02:24:16.794Z,2.93
2022-11-10T02:26:50.396Z,5.37
2022-11-10T02:29:17.604Z,3.37
2022-11-10T02:31:44.729Z,9.13
2022-11-10T02:34:12.056Z,4.67
2022-11-10T02:36:39.179Z,5.23
2022-11-10T02:39:06.582Z,3.83
2022-11-10T02:41:36.918Z,3.97
2022-11-10T02:44:05.940Z,7.73
2022-11-10T02:46:33.079Z,9.03
2022-11-10T02:49:00.170Z,2.80
2022-11-10T02:51:27.282Z,4.80
2022-11-10T02:53:54.431Z,5.20
2022-11-10T02:56:22.026Z,4.33
2022-11-10T02:58:49.133Z,6.20
2022-11-10T03:01:16.241Z,5.43
2022-11-10T03:03:43.428Z,2.63
2022-11-10T03:06:10.528Z,8.00
2022-11-10T03:08:39.025Z,4.80
2022-11-10T03:11:06.241Z,9.10
2022-11-10T03:13:51.760Z,4.83
2022-11-10T03:16:21.268Z,3.00
2022-11-10T03:18:48.346Z,8.43
2022-11-10T03:21:15.662Z,5.07
2022-11-10T03:23:42.697Z,3.10
2022-11-10T03:26:09.846Z,3.93
2022-11-10T03:28:37.069Z,6.97
2022-11-10T03:31:04.173Z,5.20
2022-11-10T03:33:31.315Z,4.43
2022-11-10T03:35:58.357Z,9.63
2022-11-10T03:38:25.458Z,5.50
2022-11-10T03:43:39.973Z,4.97
2022-11-10T03:46:07.192Z,3.10
2022-11-10T03:48:34.336Z,2.10
2022-11-10T03:51:01.383Z,6.00
2022-11-10T03:53:28.455Z,6.23
2022-11-10T03:55:55.578Z,8.60
2022-11-10T03:58:22.652Z,14.63
2022-11-10T04:00:49.814Z,4.40
2022-11-10T04:03:16.874Z,7.83
2022-11-10T04:06:02.537Z,7.70
2022-11-10T04:08:48.278Z,10.43
2022-11-10T04:11:35.358Z,7.83
2022-11-10T04:14:21.134Z,9.60
2022-11-10T04:16:48.337Z,4.03
2022-11-10T04:19:15.824Z,4.20
2022-11-10T04:21:42.955Z,6.67
2022-11-10T04:24:10.106Z,12.83
2022-11-10T04:26:38.976Z,4.07
2022-11-10T04:29:08.845Z,6.47
2022-11-10T04:31:37.889Z,4.60
2022-11-10T04:34:06.742Z,6.70
2022-11-10T04:36:36.197Z,10.63
2022-11-10T04:39:05.113Z,4.63
2022-11-10T04:41:32.901Z,7.40
2022-11-10T04:44:00.938Z,6.30
2022-11-10T04:46:34.329Z,3.47
2022-11-10T04:49:02.186Z,3.13
2022-11-10T04:51:32.273Z,5.70
2022-11-10T04:53:59.945Z,12.50
2022-11-10T04:56:27.591Z,7.97
2022-11-10T04:58:55.525Z,11.27
2022-11-10T05:01:27.722Z,8.43
2022-11-10T05:03:55.715Z,7.50
2022-11-10T05:06:23.730Z,5.63
2022-11-10T05:08:51.715Z,7.43
2022-11-10T05:11:18.915Z,10.63
2022-11-10T05:13:46.824Z,8.93
2022-11-10T05:16:14.739Z,6.03
2022-11-10T05:18:42.416Z,9.30
2022-11-10T05:21:09.586Z,9.10
2022-11-10T05:23:39.774Z,5.73
2022-11-10T05:26:11.216Z,9.07
2022-11-10T05:28:40.063Z,6.63
2022-11-10T05:31:07.713Z,4.20
2022-11-10T05:33:36.101Z,7.63
2022-11-10T05:36:03.398Z,7.10
2022-11-10T05:38:30.503Z,12.57
2022-11-10T05:40:57.797Z,5.73
2022-11-10T05:43:25.533Z,9.20
2022-11-10T05:45:52.951Z,8.77
2022-11-10T05:48:20.118Z,11.40
2022-11-10T05:50:47.275Z,7.23
2022-11-10T05:53:14.494Z,8.50
2022-11-10T05:55:41.584Z,3.80
2022-11-10T05:58:09.203Z,5.17
2022-11-10T06:00:36.414Z,5.63
2022-11-10T06:03:13.663Z,7.17
2022-11-10T06:05:41.026Z,13.13
2022-11-10T06:08:09.167Z,6.50
2022-11-10T06:10:37.532Z,5.40
2022-11-10T06:13:05.322Z,8.27
2022-11-10T06:15:32.482Z,6.63
2022-11-10T06:17:59.663Z,10.43
2022-11-10T06:20:27.344Z,12.10
2022-11-10T06:23:04.977Z,5.13
2022-11-10T06:25:34.687Z,5.80
2022-11-10T06:28:02.843Z,7.87
2022-11-10T06:30:31.269Z,7.60
2022-11-10T06:32:59.026Z,9.10
2022-11-10T06:35:27.149Z,15.10
2022-11-10T06:38:04.791Z,13.03
2022-11-10T06:40:33.046Z,11.03
2022-11-10T06:43:01.721Z,10.53
2022-11-10T06:45:29.236Z,12.00
2022-11-10T06:48:07.862Z,12.10
2022-11-10T06:50:34.998Z,9.80
2022-11-10T06:53:02.362Z,14.07
2022-11-10T06:55:30.268Z,10.33
2022-11-10T06:57:57.770Z,23.33
2022-11-10T07:00:26.316Z,8.77
2022-11-10T07:03:07.348Z,13.30
2022-11-10T07:05:36.707Z,13.43
2022-11-10T07:08:18.782Z,22.60
2022-11-10T07:10:51.656Z,7.13
2022-11-10T07:13:19.616Z,6.37
2022-11-10T07:15:46.988Z,16.80
2022-11-10T07:18:14.287Z,16.73
2022-11-10T07:20:41.642Z,12.70
2022-11-10T07:23:09.179Z,21.47
2022-11-10T07:25:37.627Z,18.13
2022-11-10T07:28:07.415Z,15.77
2022-11-10T07:30:35.678Z,14.20
2022-11-10T07:33:13.479Z,14.63
2022-11-10T07:35:41.403Z,11.90
2022-11-10T07:38:14.045Z,10.40
2022-11-10T07:40:41.279Z,12.50
2022-11-10T07:43:08.523Z,11.40
2022-11-10T07:45:35.993Z,11.23
2022-11-10T07:48:05.301Z,16.57
2022-11-10T07:50:34.026Z,12.93
2022-11-10T07:53:15.197Z,12.13
2022-11-10T07:55:44.487Z,14.20
2022-11-10T07:58:13.874Z,17.57
2022-11-10T08:00:41.725Z,15.50
2022-11-10T08:03:13.179Z,8.80
2022-11-10T08:05:40.568Z,13.67
2022-11-10T08:08:09.899Z,31.73
2022-11-10T08:10:40.568Z,26.10
2022-11-10T08:13:11.936Z,31.27
2022-11-10T08:15:39.757Z,26.83
2022-11-10T08:18:18.404Z,20.87
2022-11-10T08:20:45.692Z,20.20
2022-11-10T08:23:13.258Z,22.10
2022-11-10T08:25:40.980Z,23.10
2022-11-10T08:28:14.021Z,19.10
2022-11-10T08:30:43.136Z,13.23
2022-11-10T08:33:12.030Z,21.00
2022-11-10T08:35:45.014Z,17.00
2022-11-10T08:38:21.978Z,17.90
2022-11-10T08:40:49.424Z,8.20
2022-11-10T08:43:17.914Z,15.47
2022-11-10T08:45:45.900Z,22.67
2022-11-10T08:48:20.646Z,20.67
2022-11-10T08:50:49.742Z,14.63
2022-11-10T08:53:19.674Z,14.20
2022-11-10T08:55:47.529Z,16.10
2022-11-10T08:58:22.785Z,18.40
2022-11-10T09:00:50.898Z,30.27
2022-11-10T09:03:24.335Z,14.10
2022-11-10T09:05:57.917Z,17.47
2022-11-10T09:08:25.768Z,22.60
2022-11-10T09:10:53.115Z,19.83
2022-11-10T09:13:29.101Z,11.40
2022-11-10T09:16:04.920Z,11.40
2022-11-10T09:18:32.554Z,15.23
2022-11-10T09:20:59.971Z,14.77
2022-11-10T09:23:28.324Z,10.27
2022-11-10T09:25:56.969Z,20.27
2022-11-10T09:28:24.673Z,21.93
2022-11-10T09:30:52.907Z,15.90
2022-11-10T09:33:20.655Z,20.47
2022-11-10T09:35:48.089Z,12.30
2022-11-10T09:38:15.226Z,21.90
2022-11-10T09:41:05.112Z,19.73
2022-11-10T09:44:04.016Z,19.60
2022-11-10T09:46:39.158Z,22.50
2022-11-10T09:49:27.595Z,23.83
2022-11-10T09:51:56.221Z,14.30
2022-11-10T09:54:37.339Z,9.23
2022-11-10T09:57:07.089Z,17.00
2022-11-10T09:59:36.178Z,27.50
2022-11-10T10:02:19.698Z,16.80
2022-11-10T10:04:52.943Z,22.63
2022-11-10T10:08:06.116Z,17.30
2022-11-10T10:10:47.013Z,24.67
2022-11-10T10:13:26.530Z,17.80
2022-11-10T10:16:06.524Z,14.03
2022-11-10T10:19:02.602Z,23.57
2022-11-10T10:22:34.061Z,22.90
2022-11-10T10:25:09.863Z,35.10
2022-11-10T10:27:40.924Z,19.37
2022-11-10T10:30:16.485Z,11.90
2022-11-10T10:32:43.594Z,23.70
2022-11-10T10:35:15.797Z,13.27
2022-11-10T10:37:51.957Z,19.00
2022-11-10T10:40:21.888Z,22.03
2022-11-10T10:42:49.479Z,16.90
2022-11-10T10:45:22.103Z,14.73
2022-11-10T10:47:52.342Z,9.60
2022-11-10T10:50:26.531Z,18.10
2022-11-10T10:53:12.816Z,16.63
2022-11-10T10:55:47.769Z,20.50
2022-11-10T10:58:26.547Z,12.57
2022-11-10T11:01:07.898Z,20.13
2022-11-10T11:03:44.420Z,26.83
2022-11-10T11:06:17.529Z,22.13
2022-11-10T11:09:15.664Z,23.10
2022-11-10T11:11:44.983Z,24.67
2022-11-10T11:14:19.208Z,19.17
2022-11-10T11:16:54.175Z,37.13
2022-11-10T11:19:24.921Z,22.03
2022-11-10T11:22:01.038Z,31.23
2022-11-10T11:24:51.487Z,28.13
2022-11-10T11:27:43.488Z,24.93
2022-11-10T11:30:20.786Z,14.53
2022-11-10T11:33:13.243Z,26.30
2022-11-10T11:35:58.190Z,23.87
2022-11-10T11:38:44.305Z,29.77
2022-11-10T11:41:33.223Z,10.20
2022-11-10T11:44:25.182Z,17.30
2022-11-10T11:46:52.218Z,17.77
2022-11-10T11:49:52.596Z,21.10
2022-11-10T11:52:33.405Z,20.93
2022-11-10T11:55:14.031Z,33.07
2022-11-10T11:57:53.100Z,23.37
2022-11-10T12:00:21.983Z,37.97
2022-11-10T12:03:18.405Z,18.13
2022-11-10T12:06:20.417Z,11.00
2022-11-10T12:09:02.913Z,24.03
2022-11-10T12:11:42.151Z,18.20
2022-11-10T12:14:21.495Z,26.57
2022-11-10T12:17:22.912Z,31.73
2022-11-10T12:20:16.161Z,15.87
2022-11-10T12:23:07.443Z,26.53
2022-11-10T12:26:15.116Z,23.10
2022-11-10T12:28:59.984Z,10.70
2022-11-10T12:31:30.259Z,23.37
2022-11-10T12:34:02.246Z,14.87
2022-11-10T12:36:30.863Z,21.57
2022-11-10T12:39:27.790Z,10.43
2022-11-10T12:41:59.899Z,13.40
2022-11-10T12:44:47.233Z,25.00
2022-11-10T12:47:19.589Z,23.30
2022-11-10T12:50:19.247Z,16.47
2022-11-10T12:52:55.101Z,19.93
2022-11-10T12:55:34.683Z,19.87
2022-11-10T12:58:04.443Z,14.57
2022-11-10T13:00:38.429Z,25.83
2022-11-10T13:03:06.263Z,23.83
2022-11-10T13:05:42.065Z,18.93
2022-11-10T13:08:25.214Z,17.83
2022-11-10T13:11:00.453Z,26.27
2022-11-10T13:13:28.081Z,17.30
2022-11-10T13:15:58.091Z,14.03
2022-11-10T13:18:34.560Z,30.70
2022-11-10T13:21:01.724Z,11.00
2022-11-10T13:23:56.266Z,16.33
2022-11-10T13:26:44.727Z,25.67
2022-11-10T13:29:36.774Z,30.63
2022-11-10T13:32:16.098Z,20.70
2022-11-10T13:34:46.553Z,16.13
2022-11-10T13:37:35.248Z,15.80
2022-11-10T13:40:17.602Z,20.50
2022-11-10T13:43:05.308Z,9.60
2022-11-10T13:45:37.114Z,15.67
2022-11-10T13:48:13.103Z,20.37
2022-11-10T13:51:07.336Z,17.93
2022-11-10T13:53:46.382Z,14.30
2022-11-10T13:56:44.906Z,18.73
2022-11-10T13:59:21.140Z,12.03
2022-11-10T14:01:49.156Z,14.93
2022-11-10T14:04:38.284Z,21.60
2022-11-10T14:07:12.727Z,16.73
2022-11-10T14:09:43.210Z,15.23
2022-11-10T14:12:19.644Z,16.60
2022-11-10T14:14:54.910Z,28.97
2022-11-10T14:17:29.590Z,15.93
2022-11-10T14:19:56.869Z,13.80
2022-11-10T14:22:40.928Z,12.70
2022-11-10T14:25:30.793Z,12.53
2022-11-10T14:27:58.595Z,14.67
2022-11-10T14:30:31.636Z,18.67
2022-11-10T14:33:04.720Z,17.60
2022-11-10T14:35:48.000Z,10.77
2022-11-10T14:38:23.350Z,11.60
2022-11-10T14:40:54.573Z,14.73
2022-11-10T14:43:30.872Z,16.80
2022-11-10T14:45:59.495Z,19.40
2022-11-10T14:48:29.722Z,17.53
2022-11-10T14:51:03.447Z,21.40
2022-11-10T14:53:36.252Z,26.97
2022-11-10T14:56:05.767Z,13.90
2022-11-10T14:58:36.949Z,19.43
2022-11-10T15:01:06.185Z,12.67
2022-11-10T15:03:42.094Z,12.07
2022-11-10T15:06:12.383Z,19.07
2022-11-10T15:08:41.314Z,29.60
2022-11-10T15:11:30.000Z,11.07
2022-11-10T15:13:57.182Z,16.37
2022-11-10T15:16:38.722Z,13.60
2022-11-10T15:19:30.864Z,25.10
2022-11-10T15:22:06.945Z,15.73
2022-11-10T15:24:34.162Z,13.27
2022-11-10T15:27:01.398Z,19.10
2022-11-10T15:29:30.278Z,16.37
2022-11-10T15:31:57.459Z,13.23
2022-11-10T15:34:42.561Z,12.33
2022-11-10T15:37:31.420Z,15.10
2022-11-10T15:40:44.331Z,15.00
2022-11-10T15:43:22.238Z,13.23
2022-11-10T15:45:56.825Z,13.47
2022-11-10T15:48:25.125Z,17.20
2022-11-10T15:50:58.602Z,13.63
2022-11-10T15:53:32.334Z,14.87
2022-11-10T15:55:59.390Z,23.07
2022-11-10T15:58:27.965Z,18.07
2022-11-10T16:00:55.219Z,17.00
2022-11-10T16:03:23.750Z,18.43
2022-11-10T16:05:50.999Z,17.20
2022-11-10T16:08:21.093Z,9.70
2022-11-10T16:10:54.501Z,15.37
2022-11-10T16:13:28.741Z,22.03
2022-11-10T16:15:56.431Z,19.10
2022-11-10T16:18:26.197Z,19.90
2022-11-10T16:20:54.823Z,26.23
2022-11-10T16:23:22.010Z,16.67
2022-11-10T16:25:50.952Z,20.97
2022-11-10T16:28:25.105Z,17.97
2022-11-10T16:30:53.321Z,11.60
2022-11-10T16:33:22.968Z,12.13
2022-11-10T16:35:52.897Z,12.17
2022-11-10T16:38:23.854Z,14.60
2022-11-10T16:41:02.386Z,35.07
2022-11-10T16:43:31.315Z,19.13
2022-11-10T16:46:01.936Z,21.07
2022-11-10T16:48:31.702Z,23.93
2022-11-10T16:51:00.569Z,20.10
2022-11-10T16:53:30.546Z,18.03
2022-11-10T16:55:58.254Z,23.47
2022-11-10T16:58:27.402Z,17.70
2022-11-10T17:00:58.249Z,13.33
2022-11-10T17:03:38.871Z,11.93
2022-11-10T17:06:14.331Z,14.00
2022-11-10T17:08:42.415Z,22.33
2022-11-10T17:11:10.087Z,16.43
2022-11-10T17:13:37.327Z,21.00
2022-11-10T17:16:14.951Z,12.03
2022-11-10T17:18:43.687Z,14.13
2022-11-10T17:21:13.032Z,14.63
2022-11-10T17:23:40.394Z,18.30
2022-11-10T17:26:16.272Z,8.37
2022-11-10T17:28:43.416Z,20.93
2022-11-10T17:31:12.277Z,22.00
2022-11-10T17:33:42.300Z,19.53
2022-11-10T17:36:17.630Z,12.23
2022-11-10T17:38:45.390Z,22.43
2022-11-10T17:41:20.124Z,21.40
2022-11-10T17:43:47.972Z,22.20
2022-11-10T17:46:15.485Z,23.67
2022-11-10T17:48:44.501Z,16.23
2022-11-10T17:51:17.575Z,16.30
2022-11-10T17:53:44.734Z,18.30
2022-11-10T17:56:11.998Z,16.50
2022-11-10T17:58:39.125Z,11.63
2022-11-10T18:01:18.812Z,29.23
2022-11-10T18:03:47.088Z,21.53
2022-11-10T18:06:18.712Z,15.83
2022-11-10T18:08:46.894Z,18.10
2022-11-10T18:11:16.961Z,20.23
2022-11-10T18:13:44.916Z,12.70
2022-11-10T18:16:14.152Z,22.17
2022-11-10T18:18:42.008Z,19.77
2022-11-10T18:21:10.677Z,18.33
2022-11-10T18:23:37.896Z,22.70
2022-11-10T18:26:07.179Z,18.77
2022-11-10T18:28:35.377Z,17.37
2022-11-10T18:31:11.054Z,18.20
2022-11-10T18:33:38.250Z,15.17
2022-11-10T18:36:06.415Z,10.00
2022-11-10T18:38:33.719Z,14.47
2022-11-10T18:41:26.353Z,21.43
2022-11-10T18:43:53.547Z,12.67
2022-11-10T18:46:20.741Z,10.07
2022-11-10T18:48:47.998Z,20.20
2022-11-10T18:51:16.384Z,18.50
2022-11-10T18:53:43.569Z,13.70
2022-11-10T18:56:10.739Z,22.13
2022-11-10T18:58:37.909Z,14.87
2022-11-10T19:01:06.908Z,22.17
2022-11-10T19:03:35.558Z,24.40
2022-11-10T19:06:03.337Z,16.13
2022-11-10T19:08:30.685Z,24.83
2022-11-10T19:10:57.928Z,15.20
2022-11-10T19:13:25.572Z,25.37
2022-11-10T19:15:53.478Z,10.97
2022-11-10T19:18:20.544Z,18.60
2022-11-10T19:20:47.624Z,14.23
2022-11-10T19:23:14.805Z,14.37
2022-11-10T19:25:41.889Z,16.20
2022-11-10T19:28:11.498Z,15.43
2022-11-10T19:30:39.465Z,19.90
2022-11-10T19:33:06.766Z,16.17
2022-11-10T19:35:33.997Z,24.70
2022-11-10T19:38:01.129Z,31.10
2022-11-10T19:40:28.262Z,11.87
2022-11-10T19:42:55.391Z,14.10
2022-11-10T19:45:22.603Z,15.80
2022-11-10T19:47:49.688Z,13.23
2022-11-10T19:50:16.864Z,11.30
2022-11-10T19:52:43.980Z,20.93
2022-11-10T19:55:11.193Z,20.33
2022-11-10T19:57:38.366Z,20.87
2022-11-10T20:00:07.043Z,16.53
2022-11-10T20:02:34.167Z,13.73
2022-11-10T20:05:13.435Z,17.50
2022-11-10T20:07:59.606Z,16.20
2022-11-10T20:10:29.428Z,18.60
2022-11-10T20:12:57.870Z,12.90
2022-11-10T20:15:25.296Z,14.43
2022-11-10T20:17:52.553Z,19.07
2022-11-10T20:20:21.442Z,16.67
2022-11-10T20:22:48.634Z,13.90
2022-11-10T20:25:15.796Z,25.43
2022-11-10T20:27:43.000Z,18.90
2022-11-10T20:30:10.646Z,28.30
2022-11-10T20:32:37.909Z,11.03
2022-11-10T20:35:05.429Z,19.33
2022-11-10T20:37:33.620Z,21.27
2022-11-10T20:40:00.945Z,15.70
2022-11-10T20:42:28.187Z,17.10
2022-11-10T20:44:55.323Z,17.53
2022-11-10T20:47:22.869Z,14.83
2022-11-10T20:49:51.958Z,21.70
2022-11-10T20:52:19.204Z,21.93
2022-11-10T20:54:46.486Z,14.50
2022-11-10T20:57:13.629Z,18.27
2022-11-10T20:59:40.757Z,15.80
2022-11-10T21:02:09.593Z,16.77
2022-11-10T21:04:42.733Z,19.53
2022-11-10T21:07:10.753Z,21.70
2022-11-10T21:09:37.941Z,26.70
2022-11-10T21:12:23.839Z,26.40
2022-11-10T21:14:51.155Z,35.20
2022-11-10T21:17:18.405Z,22.63
2022-11-10T21:19:45.623Z,26.67
2022-11-10T21:22:12.694Z,20.37
2022-11-10T21:24:40.024Z,16.07
2022-11-10T21:27:09.766Z,23.63
2022-11-10T21:29:36.814Z,20.87
2022-11-10T21:32:04.298Z,17.43
2022-11-10T21:34:32.828Z,21.23
2022-11-10T21:37:00.086Z,16.73
2022-11-10T21:39:27.388Z,18.33
2022-11-10T21:41:54.581Z,28.17
2022-11-10T21:44:21.758Z,19.20
2022-11-10T21:46:48.961Z,20.53
2022-11-10T21:49:16.098Z,23.77
2022-11-10T21:51:43.253Z,13.40
2022-11-10T21:54:12.325Z,19.43
2022-11-10T21:56:39.802Z,11.97
2022-11-10T21:59:06.879Z,15.20
2022-11-10T22:01:34.139Z,21.73
2022-11-10T22:04:01.307Z,17.70
2022-11-10T22:06:48.473Z,15.73
2022-11-10T22:09:35.529Z,20.43
2022-11-10T22:12:21.427Z,11.13
2022-11-10T22:15:07.157Z,16.07
2022-11-10T22:17:53.084Z,11.53
2022-11-10T22:20:20.284Z,15.00
2022-11-10T22:22:47.375Z,19.63
2022-11-10T22:25:14.597Z,18.17
2022-11-10T22:27:41.695Z,11.30
2022-11-10T22:30:09.611Z,16.60
2022-11-10T22:32:36.706Z,19.80
2022-11-10T22:35:03.919Z,19.37
2022-11-10T22:37:33.146Z,13.33
2022-11-10T22:40:19.025Z,8.13
2022-11-10T22:43:04.908Z,10.93
2022-11-10T22:45:32.043Z,15.83
2022-11-10T22:48:17.568Z,18.90
2022-11-10T22:50:54.334Z,15.07
2022-11-10T22:53:21.684Z,19.67
2022-11-10T22:55:48.958Z,17.43
2022-11-10T22:58:16.730Z,18.13
2022-11-10T23:00:44.238Z,13.97
2022-11-10T23:03:13.488Z,20.57
2022-11-10T23:05:40.586Z,19.23
2022-11-10T23:08:07.769Z,11.13
2022-11-10T23:10:35.295Z,19.07
2022-11-10T23:13:02.475Z,9.10
2022-11-10T23:15:33.190Z,12.50
2022-11-10T23:18:05.408Z,17.90
2022-11-10T23:20:33.818Z,13.07
2022-11-10T23:23:00.947Z,15.57
2022-11-10T23:25:27.998Z,7.50
2022-11-10T23:27:56.423Z,22.97
2022-11-10T23:30:24.400Z,23.90
2022-11-10T23:32:51.460Z,15.53
2022-11-10T23:35:18.589Z,18.33
2022-11-10T23:37:45.741Z,19.43
2022-11-10T23:40:13.187Z,13.63
2022-11-10T23:42:40.366Z,14.20
2022-11-10T23:45:08.531Z,13.07
2022-11-10T23:47:35.669Z,18.20
2022-11-10T23:50:03.182Z,13.87
2022-11-10T23:52:30.326Z,17.30
2022-11-10T23:54:57.398Z,9.13
2022-11-10T23:57:24.511Z,17.40
2022-11-10T23:59:51.635Z,17.90
